Aérodrome :
LOGIN :

S'inscrire | Disclaimer

   EN    FR    IT 

 










Légende :    VFR   VFR Marginal   IFR   IFR Intensif   IFR Très Intensif
Visi : 
Plafond : 
>= 8 km
>= 3000ft
5 à 8 km
1000 à 3000 ft
1500m à 5 km
500 à 1000 ft
800 à 1500m
200 à 500 ft
< 800m
< 200 ft
Symboles :   Orages  Brouillard  Fortes neiges  Fortes précipitations  Vent > 20 kt
SIGMETs :   Divers  Orages  Givrage  Turbulence  Onde Orograph.  Cendres Volcan.







- Altitude de l'aérodrome : 665 ft
- Code IATA : NOC


EIKN - Connaught / Knock- Ireland West

DERNIER METAR :
  • 231400Z 20005KT 130V270 9999 FEW026 BKN300 19/07 Q1028 NOSIG

METARs EXPIRÉS :
  • 231330Z 22006KT 150V270 9999 FEW026 BKN300 18/07 Q1029 NOSIG
  • 231300Z 22005KT 150V320 9999 FEW026 BKN300 18/08 Q1029 NOSIG
  • 231230Z VRB03KT 9999 FEW026 BKN300 17/10 Q1029 NOSIG
  • 231200Z 26004KT 190V350 9999 FEW025 BKN300 17/09 Q1029 NOSIG
  • 231130Z 29004KT 200V060 9999 FEW024 BKN300 16/09 Q1030 NOSIG

TAF TAF EIKN
Valide du 23 à 12h jusqu'au 24 à 12h UTC


231100Z 2312/2412 VRB03KT 9999 FEW020
BECMG 2312/2315 35008KT
BECMG 2400/2403 03005KT
PROB30
TEMPO 2401/2405 4000 BR BKN007
TEMPO 2406/2409 VRB03KT
Pas de NOTAMs connus pour ce terrain.



MET'MAP, la Météo Aéronautique d'un coup d'oeil ! - Copyright ORBIFLY Décembre 2007 - Disclaimer

ORBIFLY MET'MAP TEAM :

Programmation & Développement : Alexandra Zaïnal
Conception & Développement : Baudouin d'Aumeries
Co-Programmation & Développement : Marc-Olivier Méhu
Soutien technique & logistique : Manuel Goepfert

Contact : metmap@orbifly.com




SOURCES & CREDITS :

   NOAA